Terminal Aerodrome Forecast
Issued by NWS

Home | Current Version | Previous Version | Text Only | Print | Product List | Glossary On
Versions: 1 2 3 4 5 6 7 8 9 10 11 12 13 14 15 16
743
FTUS46 KSEW 081201 AAA
TAFBLI
TAF AMD
KBLI 081201Z 0812/0912 02015G25KT P6SM SCT200
     FM090000 04020G30KT P6SM SCT130 BKN200
     FM090300 04020G30KT P6SM FEW070 OVC130
     FM090700 06015G25KT P6SM -SN SCT025 OVC050
     FM090900 06015G25KT 4SM -SN SCT013 BKN025 OVC050=

USA.gov is the U.S. government's official web portal to all federal, state and local government web resources and services.